sensor_id;sensor_type;location;lat;lon;timestamp;pressure;altitude;pressure_sealevel;temperature;humidity
1472;BME280;963;42.644;23.336;2022-12-24T00:02:19;94052.25;;;5.91;74.91
1472;BME280;963;42.644;23.336;2022-12-24T00:04:45;94041.38;;;5.89;74.59
1472;BME280;963;42.644;23.336;2022-12-24T00:07:10;94040.38;;;5.82;74.37
1472;BME280;963;42.644;23.336;2022-12-24T00:09:35;94034.50;;;5.85;74.34
1472;BME280;963;42.644;23.336;2022-12-24T00:12:01;94038.09;;;5.80;74.85
1472;BME280;963;42.644;23.336;2022-12-24T00:14:26;94048.09;;;5.78;74.06
1472;BME280;963;42.644;23.336;2022-12-24T00:16:52;94049.84;;;5.74;73.65
1472;BME280;963;42.644;23.336;2022-12-24T00:19:17;94025.50;;;5.70;73.72
1472;BME280;963;42.644;23.336;2022-12-24T00:21:43;94034.09;;;5.71;73.69
1472;BME280;963;42.644;23.336;2022-12-24T00:24:08;94055.28;;;5.81;73.64
1472;BME280;963;42.644;23.336;2022-12-24T00:26:34;94042.13;;;5.78;73.32
1472;BME280;963;42.644;23.336;2022-12-24T00:28:59;94046.91;;;5.76;73.35
1472;BME280;963;42.644;23.336;2022-12-24T00:31:25;94035.50;;;5.56;73.72
1472;BME280;963;42.644;23.336;2022-12-24T00:33:51;94032.25;;;5.59;73.56
1472;BME280;963;42.644;23.336;2022-12-24T00:36:17;94034.41;;;5.57;73.77
1472;BME280;963;42.644;23.336;2022-12-24T00:38:43;94033.66;;;5.56;74.00
1472;BME280;963;42.644;23.336;2022-12-24T00:41:09;94033.75;;;5.48;73.76
1472;BME280;963;42.644;23.336;2022-12-24T00:44:01;94048.00;;;5.50;73.68
1472;BME280;963;42.644;23.336;2022-12-24T00:46:29;94042.69;;;5.47;74.63
1472;BME280;963;42.644;23.336;2022-12-24T00:48:55;94028.78;;;5.43;74.38
1472;BME280;963;42.644;23.336;2022-12-24T00:51:21;94033.22;;;5.42;74.95
1472;BME280;963;42.644;23.336;2022-12-24T00:53:47;94040.72;;;5.44;74.41
1472;BME280;963;42.644;23.336;2022-12-24T00:56:12;94037.13;;;5.48;74.48
1472;BME280;963;42.644;23.336;2022-12-24T00:58:37;94039.97;;;5.43;74.85
1472;BME280;963;42.644;23.336;2022-12-24T01:01:03;94050.59;;;5.50;75.25
1472;BME280;963;42.644;23.336;2022-12-24T01:03:29;94047.38;;;5.65;76.08
1472;BME280;963;42.644;23.336;2022-12-24T01:06:14;94051.16;;;5.68;75.05
1472;BME280;963;42.644;23.336;2022-12-24T01:08:40;94046.28;;;5.67;73.93
1472;BME280;963;42.644;23.336;2022-12-24T01:11:07;94032.88;;;5.56;74.42
1472;BME280;963;42.644;23.336;2022-12-24T01:13:33;94045.75;;;5.61;74.53
1472;BME280;963;42.644;23.336;2022-12-24T01:15:59;94041.16;;;5.70;75.62
1472;BME280;963;42.644;23.336;2022-12-24T01:18:25;94054.41;;;5.77;76.21
1472;BME280;963;42.644;23.336;2022-12-24T01:20:59;94062.44;;;5.84;76.23
1472;BME280;963;42.644;23.336;2022-12-24T01:23:25;94040.09;;;5.95;76.05
1472;BME280;963;42.644;23.336;2022-12-24T01:25:50;94033.31;;;5.94;75.94
1472;BME280;963;42.644;23.336;2022-12-24T01:28:16;94039.63;;;6.06;76.21
1472;BME280;963;42.644;23.336;2022-12-24T01:30:42;94026.34;;;6.11;76.11
1472;BME280;963;42.644;23.336;2022-12-24T01:33:07;94022.63;;;6.12;75.63
1472;BME280;963;42.644;23.336;2022-12-24T01:35:33;94002.97;;;5.78;74.15
1472;BME280;963;42.644;23.336;2022-12-24T01:37:58;94028.00;;;5.79;75.15
1472;BME280;963;42.644;23.336;2022-12-24T01:40:25;94035.50;;;5.80;74.57
1472;BME280;963;42.644;23.336;2022-12-24T01:43:20;94035.91;;;5.82;75.61
1472;BME280;963;42.644;23.336;2022-12-24T01:45:51;94038.53;;;5.82;75.61
1472;BME280;963;42.644;23.336;2022-12-24T01:48:39;94047.78;;;5.80;75.87
1472;BME280;963;42.644;23.336;2022-12-24T01:51:34;94057.22;;;5.84;76.19
1472;BME280;963;42.644;23.336;2022-12-24T01:54:07;94032.56;;;5.82;76.06
1472;BME280;963;42.644;23.336;2022-12-24T01:56:35;94052.22;;;5.79;75.17
1472;BME280;963;42.644;23.336;2022-12-24T01:59:04;94040.28;;;5.78;75.07
1472;BME280;963;42.644;23.336;2022-12-24T02:01:31;94034.84;;;5.71;74.59
1472;BME280;963;42.644;23.336;2022-12-24T02:03:56;94028.09;;;5.82;76.04
1472;BME280;963;42.644;23.336;2022-12-24T02:06:22;94019.31;;;5.75;74.65
1472;BME280;963;42.644;23.336;2022-12-24T02:08:48;94019.22;;;5.59;75.54
1472;BME280;963;42.644;23.336;2022-12-24T02:11:19;94033.66;;;5.56;75.42
1472;BME280;963;42.644;23.336;2022-12-24T02:13:48;94013.34;;;5.50;75.66
1472;BME280;963;42.644;23.336;2022-12-24T02:32:39;94032.34;;;5.38;75.28
1472;BME280;963;42.644;23.336;2022-12-24T02:37:42;94038.13;;;5.31;75.11
1472;BME280;963;42.644;23.336;2022-12-24T02:40:14;94021.81;;;5.22;74.65
1472;BME280;963;42.644;23.336;2022-12-24T02:42:44;94032.47;;;5.29;75.17
1472;BME280;963;42.644;23.336;2022-12-24T02:45:14;94056.59;;;5.26;74.47
1472;BME280;963;42.644;23.336;2022-12-24T02:47:42;94025.81;;;5.20;75.32
1472;BME280;963;42.644;23.336;2022-12-24T02:50:11;94022.91;;;5.21;75.91
1472;BME280;963;42.644;23.336;2022-12-24T02:52:40;94029.66;;;5.22;76.43
1472;BME280;963;42.644;23.336;2022-12-24T02:55:08;94008.88;;;5.14;75.34
1472;BME280;963;42.644;23.336;2022-12-24T03:00:06;94012.22;;;5.14;76.19
1472;BME280;963;42.644;23.336;2022-12-24T03:05:36;94017.66;;;5.09;74.77
1472;BME280;963;42.644;23.336;2022-12-24T03:11:02;94009.63;;;5.02;75.75
1472;BME280;963;42.644;23.336;2022-12-24T03:13:31;94000.72;;;4.91;75.47
1472;BME280;963;42.644;23.336;2022-12-24T03:15:56;94007.44;;;4.92;75.49
1472;BME280;963;42.644;23.336;2022-12-24T03:18:23;94004.06;;;4.91;75.12
1472;BME280;963;42.644;23.336;2022-12-24T03:21:09;94000.06;;;4.94;75.69
1472;BME280;963;42.644;23.336;2022-12-24T03:23:35;94008.84;;;4.89;75.44
1472;BME280;963;42.644;23.336;2022-12-24T03:26:05;94005.06;;;4.87;75.04
1472;BME280;963;42.644;23.336;2022-12-24T03:28:32;94001.03;;;4.89;75.52
1472;BME280;963;42.644;23.336;2022-12-24T03:31:00;94009.81;;;4.85;74.75
1472;BME280;963;42.644;23.336;2022-12-24T03:33:27;94011.97;;;4.83;75.88
1472;BME280;963;42.644;23.336;2022-12-24T03:35:53;94025.38;;;4.60;76.70
1472;BME280;963;42.644;23.336;2022-12-24T03:38:18;93995.34;;;4.75;75.97
1472;BME280;963;42.644;23.336;2022-12-24T03:40:43;94016.41;;;4.82;75.85
1472;BME280;963;42.644;23.336;2022-12-24T03:43:09;94003.47;;;4.74;75.87
1472;BME280;963;42.644;23.336;2022-12-24T03:45:34;94008.25;;;4.71;75.45
1472;BME280;963;42.644;23.336;2022-12-24T03:48:00;94012.25;;;4.69;75.32
1472;BME280;963;42.644;23.336;2022-12-24T03:50:25;94026.06;;;4.69;75.77
1472;BME280;963;42.644;23.336;2022-12-24T03:52:51;94021.91;;;4.68;75.97
1472;BME280;963;42.644;23.336;2022-12-24T03:55:16;94018.25;;;4.69;75.80
1472;BME280;963;42.644;23.336;2022-12-24T03:57:41;94019.97;;;4.65;75.74
1472;BME280;963;42.644;23.336;2022-12-24T04:00:09;94013.03;;;4.69;75.90
1472;BME280;963;42.644;23.336;2022-12-24T04:02:34;94034.19;;;4.68;75.60
1472;BME280;963;42.644;23.336;2022-12-24T04:04:59;94021.47;;;4.54;76.27
1472;BME280;963;42.644;23.336;2022-12-24T04:07:25;94024.13;;;4.46;77.46
1472;BME280;963;42.644;23.336;2022-12-24T04:09:51;94029.06;;;4.59;76.59
1472;BME280;963;42.644;23.336;2022-12-24T04:12:16;94028.41;;;4.62;76.02
1472;BME280;963;42.644;23.336;2022-12-24T04:14:42;94048.81;;;4.60;75.69
1472;BME280;963;42.644;23.336;2022-12-24T04:17:07;94058.03;;;4.58;76.21
1472;BME280;963;42.644;23.336;2022-12-24T04:19:33;94044.69;;;4.59;75.94
1472;BME280;963;42.644;23.336;2022-12-24T04:21:59;94050.78;;;4.63;75.96
1472;BME280;963;42.644;23.336;2022-12-24T04:24:24;94044.28;;;4.69;77.37
1472;BME280;963;42.644;23.336;2022-12-24T04:26:50;94029.09;;;4.71;77.36
1472;BME280;963;42.644;23.336;2022-12-24T04:29:15;94045.94;;;4.74;77.76
1472;BME280;963;42.644;23.336;2022-12-24T04:31:40;94061.03;;;4.81;77.86
1472;BME280;963;42.644;23.336;2022-12-24T04:34:06;94042.03;;;4.80;77.42
1472;BME280;963;42.644;23.336;2022-12-24T04:36:31;94043.22;;;4.83;78.00
1472;BME280;963;42.644;23.336;2022-12-24T04:38:56;94043.47;;;4.90;77.63
1472;BME280;963;42.644;23.336;2022-12-24T04:41:23;94050.53;;;4.89;77.52
1472;BME280;963;42.644;23.336;2022-12-24T04:43:49;94059.03;;;5.11;77.45
1472;BME280;963;42.644;23.336;2022-12-24T04:46:23;94060.44;;;5.08;76.77
1472;BME280;963;42.644;23.336;2022-12-24T04:48:50;94090.84;;;5.04;76.33
1472;BME280;963;42.644;23.336;2022-12-24T04:51:16;94057.72;;;4.92;76.52
1472;BME280;963;42.644;23.336;2022-12-24T04:53:42;94057.50;;;4.97;77.00
1472;BME280;963;42.644;23.336;2022-12-24T04:56:13;94060.19;;;4.89;76.69
1472;BME280;963;42.644;23.336;2022-12-24T04:58:39;94061.28;;;4.88;76.57
1472;BME280;963;42.644;23.336;2022-12-24T05:01:07;94057.63;;;4.68;76.94
1472;BME280;963;42.644;23.336;2022-12-24T05:03:33;94061.31;;;4.67;76.48
1472;BME280;963;42.644;23.336;2022-12-24T05:06:08;94046.00;;;4.65;78.12
1472;BME280;963;42.644;23.336;2022-12-24T05:08:35;94040.56;;;4.58;78.06
1472;BME280;963;42.644;23.336;2022-12-24T05:11:01;94040.13;;;4.56;79.36
1472;BME280;963;42.644;23.336;2022-12-24T05:13:27;94050.03;;;4.63;79.05
1472;BME280;963;42.644;23.336;2022-12-24T05:15:53;94038.19;;;4.65;78.18
1472;BME280;963;42.644;23.336;2022-12-24T05:18:18;94032.78;;;4.70;77.83
1472;BME280;963;42.644;23.336;2022-12-24T05:20:44;94024.41;;;4.65;77.68
1472;BME280;963;42.644;23.336;2022-12-24T05:23:22;94018.88;;;4.66;78.44
1472;BME280;963;42.644;23.336;2022-12-24T05:28:55;94024.81;;;4.88;77.80
1472;BME280;963;42.644;23.336;2022-12-24T05:31:23;94025.84;;;4.75;77.92
1472;BME280;963;42.644;23.336;2022-12-24T05:33:49;94037.13;;;4.79;77.05
1472;BME280;963;42.644;23.336;2022-12-24T05:36:14;94041.72;;;4.82;77.11
1472;BME280;963;42.644;23.336;2022-12-24T05:38:40;94077.31;;;4.78;77.36
1472;BME280;963;42.644;23.336;2022-12-24T05:41:06;94050.59;;;4.81;76.62
1472;BME280;963;42.644;23.336;2022-12-24T05:43:34;94016.63;;;4.77;76.31
1472;BME280;963;42.644;23.336;2022-12-24T05:46:02;94026.72;;;4.79;76.29
1472;BME280;963;42.644;23.336;2022-12-24T05:48:27;94029.00;;;4.80;76.25
1472;BME280;963;42.644;23.336;2022-12-24T05:50:53;94023.03;;;4.80;76.59
1472;BME280;963;42.644;23.336;2022-12-24T05:53:19;94019.47;;;4.84;76.14
1472;BME280;963;42.644;23.336;2022-12-24T05:55:45;94010.22;;;4.75;76.15
1472;BME280;963;42.644;23.336;2022-12-24T05:58:10;94028.00;;;4.72;75.92
1472;BME280;963;42.644;23.336;2022-12-24T06:00:36;94012.03;;;4.62;76.60
1472;BME280;963;42.644;23.336;2022-12-24T06:03:01;94024.28;;;4.61;76.33
1472;BME280;963;42.644;23.336;2022-12-24T06:05:27;94033.44;;;4.67;77.37
1472;BME280;963;42.644;23.336;2022-12-24T06:07:52;94032.34;;;4.68;77.06
1472;BME280;963;42.644;23.336;2022-12-24T06:10:17;94037.78;;;4.76;77.14
1472;BME280;963;42.644;23.336;2022-12-24T06:12:43;94040.44;;;4.88;76.80
1472;BME280;963;42.644;23.336;2022-12-24T06:15:09;94046.66;;;4.95;76.56
1472;BME280;963;42.644;23.336;2022-12-24T06:17:35;94038.28;;;4.90;76.06
1472;BME280;963;42.644;23.336;2022-12-24T06:20:00;94041.78;;;5.06;76.35
1472;BME280;963;42.644;23.336;2022-12-24T06:22:25;94052.31;;;5.10;75.92
1472;BME280;963;42.644;23.336;2022-12-24T06:24:51;94049.91;;;5.05;75.65
1472;BME280;963;42.644;23.336;2022-12-24T06:27:16;94049.81;;;5.01;75.72
1472;BME280;963;42.644;23.336;2022-12-24T06:29:42;94042.19;;;4.96;75.98
1472;BME280;963;42.644;23.336;2022-12-24T06:32:07;94059.47;;;5.00;76.22
1472;BME280;963;42.644;23.336;2022-12-24T06:34:32;94058.16;;;5.07;76.29
1472;BME280;963;42.644;23.336;2022-12-24T06:36:58;94053.06;;;5.10;76.08
1472;BME280;963;42.644;23.336;2022-12-24T06:39:23;94074.16;;;5.17;75.40
1472;BME280;963;42.644;23.336;2022-12-24T06:41:49;94049.50;;;5.15;75.08
1472;BME280;963;42.644;23.336;2022-12-24T06:44:15;94074.34;;;5.12;75.75
1472;BME280;963;42.644;23.336;2022-12-24T06:46:40;94071.63;;;5.09;75.78
1472;BME280;963;42.644;23.336;2022-12-24T06:49:06;94087.16;;;5.05;76.09
1472;BME280;963;42.644;23.336;2022-12-24T06:51:31;94064.16;;;5.07;75.88
1472;BME280;963;42.644;23.336;2022-12-24T06:53:56;94088.25;;;5.04;75.86
1472;BME280;963;42.644;23.336;2022-12-24T06:56:22;94065.22;;;5.06;76.11
1472;BME280;963;42.644;23.336;2022-12-24T06:58:47;94064.34;;;5.02;75.86
1472;BME280;963;42.644;23.336;2022-12-24T07:01:14;94069.47;;;5.11;75.99
1472;BME280;963;42.644;23.336;2022-12-24T07:03:40;94069.84;;;5.21;76.12
1472;BME280;963;42.644;23.336;2022-12-24T07:06:06;94075.28;;;5.28;75.28
1472;BME280;963;42.644;23.336;2022-12-24T07:08:32;94070.06;;;5.41;75.32
1472;BME280;963;42.644;23.336;2022-12-24T07:10:59;94067.56;;;5.44;75.54
1472;BME280;963;42.644;23.336;2022-12-24T07:13:25;94087.03;;;5.71;74.08
1472;BME280;963;42.644;23.336;2022-12-24T07:16:00;94075.72;;;5.79;73.15
1472;BME280;963;42.644;23.336;2022-12-24T07:18:26;94090.63;;;5.91;72.72
1472;BME280;963;42.644;23.336;2022-12-24T07:20:52;94083.88;;;5.90;72.60
1472;BME280;963;42.644;23.336;2022-12-24T07:23:18;94067.91;;;5.91;73.18
1472;BME280;963;42.644;23.336;2022-12-24T07:25:43;94091.31;;;6.00;72.83
1472;BME280;963;42.644;23.336;2022-12-24T07:28:08;94088.25;;;5.98;73.42
1472;BME280;963;42.644;23.336;2022-12-24T07:30:34;94068.66;;;6.04;72.68
1472;BME280;963;42.644;23.336;2022-12-24T07:32:59;94078.44;;;6.07;72.94
1472;BME280;963;42.644;23.336;2022-12-24T07:35:25;94085.63;;;6.10;72.41
1472;BME280;963;42.644;23.336;2022-12-24T07:37:50;94085.91;;;6.21;72.59
1472;BME280;963;42.644;23.336;2022-12-24T07:40:16;94079.94;;;6.20;72.30
1472;BME280;963;42.644;23.336;2022-12-24T07:42:41;94074.38;;;6.22;72.40
1472;BME280;963;42.644;23.336;2022-12-24T07:45:07;94114.94;;;6.32;72.92
1472;BME280;963;42.644;23.336;2022-12-24T07:47:33;94094.06;;;6.32;73.16
1472;BME280;963;42.644;23.336;2022-12-24T07:49:59;94090.06;;;6.34;73.08
1472;BME280;963;42.644;23.336;2022-12-24T07:52:24;94082.41;;;6.41;72.92
1472;BME280;963;42.644;23.336;2022-12-24T07:54:50;94086.97;;;6.44;72.69
1472;BME280;963;42.644;23.336;2022-12-24T07:57:15;94111.97;;;6.57;72.48
1472;BME280;963;42.644;23.336;2022-12-24T07:59:40;94091.91;;;6.62;71.96
1472;BME280;963;42.644;23.336;2022-12-24T08:02:09;94098.66;;;6.90;71.84
1472;BME280;963;42.644;23.336;2022-12-24T08:04:35;94082.25;;;7.06;71.06
1472;BME280;963;42.644;23.336;2022-12-24T08:07:01;94138.06;;;7.26;70.87
1472;BME280;963;42.644;23.336;2022-12-24T08:09:30;94123.81;;;7.39;70.21
1472;BME280;963;42.644;23.336;2022-12-24T08:11:55;94106.63;;;7.53;69.35
1472;BME280;963;42.644;23.336;2022-12-24T08:14:21;94112.34;;;7.59;69.10
1472;BME280;963;42.644;23.336;2022-12-24T08:16:46;94108.81;;;7.67;69.10
1472;BME280;963;42.644;23.336;2022-12-24T08:19:12;94122.31;;;7.69;68.83
1472;BME280;963;42.644;23.336;2022-12-24T08:21:37;94128.31;;;7.70;68.62
1472;BME280;963;42.644;23.336;2022-12-24T08:24:03;94104.09;;;7.57;68.96
1472;BME280;963;42.644;23.336;2022-12-24T08:26:28;94124.00;;;7.77;68.24
1472;BME280;963;42.644;23.336;2022-12-24T08:28:53;94105.09;;;7.68;67.87
1472;BME280;963;42.644;23.336;2022-12-24T08:31:19;94116.50;;;7.60;67.81
1472;BME280;963;42.644;23.336;2022-12-24T08:33:44;94093.44;;;7.50;67.93
1472;BME280;963;42.644;23.336;2022-12-24T08:36:09;94106.34;;;7.43;68.47
1472;BME280;963;42.644;23.336;2022-12-24T08:38:35;94078.91;;;7.37;68.70
1472;BME280;963;42.644;23.336;2022-12-24T08:41:00;94095.66;;;7.48;69.00
1472;BME280;963;42.644;23.336;2022-12-24T08:43:26;94084.91;;;7.37;69.88
1472;BME280;963;42.644;23.336;2022-12-24T08:45:52;94092.50;;;7.27;70.38
1472;BME280;963;42.644;23.336;2022-12-24T08:48:18;94077.22;;;7.29;71.13
1472;BME280;963;42.644;23.336;2022-12-24T08:50:43;94086.97;;;7.44;70.56
1472;BME280;963;42.644;23.336;2022-12-24T08:53:09;94101.88;;;7.59;70.36
1472;BME280;963;42.644;23.336;2022-12-24T08:55:35;94084.59;;;7.55;70.04
1472;BME280;963;42.644;23.336;2022-12-24T08:58:01;94090.56;;;7.55;70.11
1472;BME280;963;42.644;23.336;2022-12-24T09:00:26;94094.69;;;7.72;69.55
1472;BME280;963;42.644;23.336;2022-12-24T09:02:52;94103.94;;;7.81;69.70
1472;BME280;963;42.644;23.336;2022-12-24T09:05:18;94121.88;;;7.99;69.34
1472;BME280;963;42.644;23.336;2022-12-24T09:07:43;94106.75;;;8.08;68.83
1472;BME280;963;42.644;23.336;2022-12-24T09:10:10;94108.41;;;8.16;68.18
1472;BME280;963;42.644;23.336;2022-12-24T09:12:35;94102.53;;;8.19;68.53
1472;BME280;963;42.644;23.336;2022-12-24T09:15:01;94096.84;;;8.17;68.17
1472;BME280;963;42.644;23.336;2022-12-24T09:17:27;94089.22;;;7.61;69.72
1472;BME280;963;42.644;23.336;2022-12-24T09:19:52;94089.88;;;7.90;69.65
1472;BME280;963;42.644;23.336;2022-12-24T09:22:18;94096.66;;;7.91;69.21
1472;BME280;963;42.644;23.336;2022-12-24T09:24:43;94094.03;;;7.91;69.78
1472;BME280;963;42.644;23.336;2022-12-24T09:27:08;94084.28;;;8.07;69.56
1472;BME280;963;42.644;23.336;2022-12-24T09:29:34;94110.03;;;8.21;68.68
1472;BME280;963;42.644;23.336;2022-12-24T09:32:00;94080.34;;;8.32;68.79
1472;BME280;963;42.644;23.336;2022-12-24T09:34:26;94089.47;;;8.38;68.27
1472;BME280;963;42.644;23.336;2022-12-24T09:36:51;94095.88;;;8.41;68.55
1472;BME280;963;42.644;23.336;2022-12-24T09:39:19;94087.53;;;8.55;67.92
1472;BME280;963;42.644;23.336;2022-12-24T09:46:58;94081.91;;;8.72;68.08
1472;BME280;963;42.644;23.336;2022-12-24T09:49:35;94083.91;;;8.98;66.79
1472;BME280;963;42.644;23.336;2022-12-24T09:52:07;94053.88;;;8.95;66.96
1472;BME280;963;42.644;23.336;2022-12-24T09:54:36;94069.44;;;9.07;66.38
1472;BME280;963;42.644;23.336;2022-12-24T09:57:14;94076.63;;;9.11;66.10
1472;BME280;963;42.644;23.336;2022-12-24T09:59:45;94074.41;;;9.13;65.93
1472;BME280;963;42.644;23.336;2022-12-24T10:02:14;94075.22;;;8.74;66.59
1472;BME280;963;42.644;23.336;2022-12-24T10:04:41;94082.31;;;8.93;66.08
1472;BME280;963;42.644;23.336;2022-12-24T10:07:47;94076.72;;;8.95;66.15
1472;BME280;963;42.644;23.336;2022-12-24T10:10:30;94074.00;;;9.11;65.47
1472;BME280;963;42.644;23.336;2022-12-24T10:21:13;94060.06;;;9.06;65.56
1472;BME280;963;42.644;23.336;2022-12-24T10:26:49;94062.16;;;8.97;65.56
1472;BME280;963;42.644;23.336;2022-12-24T10:29:26;94069.16;;;9.13;65.25
1472;BME280;963;42.644;23.336;2022-12-24T10:34:39;94073.78;;;9.19;64.82
1472;BME280;963;42.644;23.336;2022-12-24T10:37:05;94065.13;;;9.19;63.99
1472;BME280;963;42.644;23.336;2022-12-24T10:39:31;94055.00;;;9.17;64.21
1472;BME280;963;42.644;23.336;2022-12-24T10:41:58;94080.81;;;8.92;65.22
1472;BME280;963;42.644;23.336;2022-12-24T10:44:29;94054.69;;;9.22;64.46
1472;BME280;963;42.644;23.336;2022-12-24T10:46:56;94070.22;;;8.89;65.28
1472;BME280;963;42.644;23.336;2022-12-24T10:49:33;94043.16;;;9.04;64.50
1472;BME280;963;42.644;23.336;2022-12-24T10:52:21;94047.34;;;9.08;64.60
1472;BME280;963;42.644;23.336;2022-12-24T10:58:03;94080.47;;;9.17;64.27
1472;BME280;963;42.644;23.336;2022-12-24T11:00:30;94053.19;;;9.21;64.27
1472;BME280;963;42.644;23.336;2022-12-24T11:05:37;94068.06;;;9.14;64.22
1472;BME280;963;42.644;23.336;2022-12-24T11:08:21;94079.78;;;9.20;64.72
1472;BME280;963;42.644;23.336;2022-12-24T11:10:58;94062.50;;;9.19;65.53
1472;BME280;963;42.644;23.336;2022-12-24T11:18:47;94056.13;;;9.39;64.36
1472;BME280;963;42.644;23.336;2022-12-24T11:22:24;94053.59;;;9.23;64.21
1472;BME280;963;42.644;23.336;2022-12-24T11:24:25;94046.41;;;9.20;64.93
1472;BME280;963;42.644;23.336;2022-12-24T11:26:52;94044.25;;;9.26;64.82
1472;BME280;963;42.644;23.336;2022-12-24T11:29:22;94033.06;;;9.29;64.52
1472;BME280;963;42.644;23.336;2022-12-24T11:31:48;94053.78;;;9.34;64.93
1472;BME280;963;42.644;23.336;2022-12-24T11:34:26;94060.09;;;9.29;64.39
1472;BME280;963;42.644;23.336;2022-12-24T11:36:55;94064.28;;;9.34;64.87
1472;BME280;963;42.644;23.336;2022-12-24T11:39:38;94057.91;;;9.58;64.59
1472;BME280;963;42.644;23.336;2022-12-24T11:42:05;94090.28;;;9.65;64.21
1472;BME280;963;42.644;23.336;2022-12-24T11:44:31;94049.50;;;9.98;63.51
1472;BME280;963;42.644;23.336;2022-12-24T11:46:57;94058.03;;;9.91;63.68
1472;BME280;963;42.644;23.336;2022-12-24T11:49:30;94044.66;;;10.26;62.92
1472;BME280;963;42.644;23.336;2022-12-24T11:52:20;94046.56;;;10.59;61.22
1472;BME280;963;42.644;23.336;2022-12-24T11:55:16;94045.09;;;10.62;61.00
1472;BME280;963;42.644;23.336;2022-12-24T11:57:55;94036.53;;;10.69;60.62
1472;BME280;963;42.644;23.336;2022-12-24T12:00:22;94032.94;;;10.84;60.21
1472;BME280;963;42.644;23.336;2022-12-24T12:02:48;94042.78;;;10.90;59.85
1472;BME280;963;42.644;23.336;2022-12-24T12:05:18;94030.09;;;11.00;59.26
1472;BME280;963;42.644;23.336;2022-12-24T12:07:49;94047.50;;;11.11;59.30
1472;BME280;963;42.644;23.336;2022-12-24T12:10:24;94036.38;;;11.28;58.67
1472;BME280;963;42.644;23.336;2022-12-24T12:13:02;94032.94;;;11.65;58.74
1472;BME280;963;42.644;23.336;2022-12-24T12:15:34;94029.91;;;12.21;56.80
1472;BME280;963;42.644;23.336;2022-12-24T12:20:34;94019.63;;;12.89;54.49
1472;BME280;963;42.644;23.336;2022-12-24T12:25:56;94043.88;;;13.37;53.59
1472;BME280;963;42.644;23.336;2022-12-24T12:28:36;94029.94;;;13.65;53.46
1472;BME280;963;42.644;23.336;2022-12-24T12:31:11;94028.41;;;14.03;52.27
1472;BME280;963;42.644;23.336;2022-12-24T12:33:42;94012.72;;;14.73;50.92
1472;BME280;963;42.644;23.336;2022-12-24T12:36:12;94001.78;;;15.33;48.60
1472;BME280;963;42.644;23.336;2022-12-24T12:38:40;94009.63;;;15.48;47.95
1472;BME280;963;42.644;23.336;2022-12-24T12:46:56;94024.94;;;15.22;48.45
1472;BME280;963;42.644;23.336;2022-12-24T12:49:56;94036.72;;;15.14;48.29
1472;BME280;963;42.644;23.336;2022-12-24T12:55:38;94032.97;;;13.64;51.34
1472;BME280;963;42.644;23.336;2022-12-24T12:58:30;94039.00;;;13.89;51.39
1472;BME280;963;42.644;23.336;2022-12-24T13:01:07;94049.19;;;13.59;52.09
1472;BME280;963;42.644;23.336;2022-12-24T13:12:03;94050.66;;;13.17;52.83
1472;BME280;963;42.644;23.336;2022-12-24T13:20:03;94067.09;;;12.75;54.42
1472;BME280;963;42.644;23.336;2022-12-24T13:22:34;94064.03;;;12.62;54.47
1472;BME280;963;42.644;23.336;2022-12-24T13:25:00;94062.91;;;12.63;54.92
1472;BME280;963;42.644;23.336;2022-12-24T13:27:28;94100.53;;;12.53;55.04
1472;BME280;963;42.644;23.336;2022-12-24T13:29:58;94081.13;;;12.20;56.50
1472;BME280;963;42.644;23.336;2022-12-24T13:37:31;94093.06;;;11.97;57.80
1472;BME280;963;42.644;23.336;2022-12-24T13:53:03;94110.06;;;11.25;59.95
1472;BME280;963;42.644;23.336;2022-12-24T13:55:30;94102.09;;;11.18;61.40
1472;BME280;963;42.644;23.336;2022-12-24T13:58:00;94108.78;;;11.12;61.90
1472;BME280;963;42.644;23.336;2022-12-24T14:05:46;94113.59;;;11.03;63.06
1472;BME280;963;42.644;23.336;2022-12-24T14:13:55;94106.25;;;10.85;63.37
1472;BME280;963;42.644;23.336;2022-12-24T14:19:59;94136.94;;;10.74;64.57
1472;BME280;963;42.644;23.336;2022-12-24T14:22:29;94127.50;;;10.73;65.32
1472;BME280;963;42.644;23.336;2022-12-24T14:25:01;94122.97;;;10.70;64.88
1472;BME280;963;42.644;23.336;2022-12-24T14:28:16;94124.09;;;10.69;64.87
1472;BME280;963;42.644;23.336;2022-12-24T14:30:23;94123.31;;;10.69;65.86
1472;BME280;963;42.644;23.336;2022-12-24T14:32:50;94144.72;;;10.67;66.02
1472;BME280;963;42.644;23.336;2022-12-24T14:35:22;94130.09;;;10.70;66.54
1472;BME280;963;42.644;23.336;2022-12-24T14:37:57;94129.34;;;10.69;65.87
1472;BME280;963;42.644;23.336;2022-12-24T14:40:27;94143.56;;;10.64;66.47
1472;BME280;963;42.644;23.336;2022-12-24T14:46:13;94127.66;;;10.54;68.15
1472;BME280;963;42.644;23.336;2022-12-24T14:54:36;94132.63;;;10.32;70.36
1472;BME280;963;42.644;23.336;2022-12-24T14:57:23;94134.78;;;10.27;70.53
1472;BME280;963;42.644;23.336;2022-12-24T15:02:39;94137.97;;;10.40;70.78
1472;BME280;963;42.644;23.336;2022-12-24T15:05:09;94139.91;;;10.43;71.12
1472;BME280;963;42.644;23.336;2022-12-24T15:07:38;94139.50;;;10.41;71.73
1472;BME280;963;42.644;23.336;2022-12-24T15:10:14;94135.28;;;10.36;72.40
1472;BME280;963;42.644;23.336;2022-12-24T15:12:44;94143.94;;;10.37;72.75
1472;BME280;963;42.644;23.336;2022-12-24T15:15:15;94156.31;;;10.36;73.24
1472;BME280;963;42.644;23.336;2022-12-24T15:17:42;94156.63;;;10.31;73.14
1472;BME280;963;42.644;23.336;2022-12-24T15:20:13;94159.31;;;10.34;73.56
1472;BME280;963;42.644;23.336;2022-12-24T15:22:41;94163.44;;;10.36;73.81
1472;BME280;963;42.644;23.336;2022-12-24T15:25:28;94161.63;;;10.40;73.73
1472;BME280;963;42.644;23.336;2022-12-24T15:27:54;94154.34;;;10.29;74.15
1472;BME280;963;42.644;23.336;2022-12-24T15:30:22;94165.81;;;10.41;73.82
1472;BME280;963;42.644;23.336;2022-12-24T15:32:50;94165.00;;;10.40;73.50
1472;BME280;963;42.644;23.336;2022-12-24T15:38:22;94167.66;;;10.40;74.29
1472;BME280;963;42.644;23.336;2022-12-24T15:40:49;94166.56;;;10.41;74.21
1472;BME280;963;42.644;23.336;2022-12-24T15:43:14;94176.31;;;10.41;74.19
1472;BME280;963;42.644;23.336;2022-12-24T15:45:43;94171.75;;;10.38;74.75
1472;BME280;963;42.644;23.336;2022-12-24T15:48:11;94213.66;;;10.27;74.82
1472;BME280;963;42.644;23.336;2022-12-24T15:50:44;94176.19;;;10.33;74.92
1472;BME280;963;42.644;23.336;2022-12-24T15:53:13;94182.31;;;10.18;75.05
1472;BME280;963;42.644;23.336;2022-12-24T15:55:43;94179.44;;;10.23;75.49